Latest Weather Observations for Ben Nevis

IDV60801

Issued at 11:02 pm EST Monday 6 July 2020 (issued every 10 minutes, with the page automatically refreshed every 10 minutes)

About weather observations | Map of weather stations | Latest weather observations for VIC | Other Formats
Station Details ID: 079101 Name: BEN NEVIS Lat: -37.23 Lon: 143.20 Height: 875.0 m
Data from the previous 72 hours. | See also: Recent months at Ben Nevis
Date/Time
EST
Temp
°C
App
Temp
°C
Dew
Point
°C
Rel
Hum
%
Delta-T
°C
Wind Press
QNH
hPa
Press
MSL
hPa
Rain since
9am
mm
Dir  Spd
km/h
Gust
km/h
Spd
kts
Gust
kts
06/11:00pm 4.9 0.1 4.9 100 0.0 SSW 19 28 10 15 - - 0.8
06/10:30pm 5.0 0.3 5.0 100 0.0 S 19 30 10 16 - - 0.8
06/10:00pm 5.0 -0.3 5.0 100 0.0 SSW 22 35 12 19 - - 0.6
06/09:30pm 5.0 -0.7 5.0 100 0.0 SSW 24 35 13 19 - - 0.6
06/09:00pm 4.8 -0.2 4.7 99 0.0 SSW 20 33 11 18 - - 0.6
06/08:30pm 5.0 -0.3 4.9 99 0.0 SSW 22 35 12 19 - - 0.6
06/08:00pm 5.3 0.4 5.3 100 0.0 SSW 20 35 11 19 - - 0.6
06/07:30pm 5.3 0.0 5.2 99 0.0 SSW 22 35 12 19 - - 0.6
06/07:00pm 5.2 0.3 5.1 99 0.0 SSW 20 39 11 21 - - 0.6
06/06:30pm 5.3 0.4 5.2 99 0.0 SSW 20 33 11 18 - - 0.6
06/06:00pm 5.3 0.6 5.2 99 0.0 SSW 19 35 10 19 - - 0.6
06/05:30pm 5.1 1.1 5.0 99 0.0 SSW 15 24 8 13 - - 0.4
06/05:00pm 4.9 0.9 4.8 99 0.0 S 15 26 8 14 - - 0.4
06/04:30pm 4.8 0.8 4.7 99 0.0 S 15 24 8 13 - - 0.4
06/04:00pm 4.9 0.1 4.8 99 0.0 SSW 19 33 10 18 - - 0.4
06/03:30pm 5.2 0.5 5.1 99 0.0 SSW 19 28 10 15 - - 0.4
06/03:00pm 5.6 1.0 5.5 99 0.0 SSW 19 33 10 18 - - 0.4
06/02:30pm 5.6 0.8 5.5 99 0.0 SSW 20 32 11 17 - - 0.4
06/02:00pm 5.4 0.7 5.3 99 0.0 SSW 19 30 10 16 - - 0.4
06/01:30pm 5.3 0.4 5.3 100 0.0 SSW 20 35 11 19 - - 0.4
06/01:00pm 5.2 0.3 5.2 100 0.0 SSW 20 35 11 19 - - 0.4
06/12:30pm 5.3 0.4 5.3 100 0.0 SSW 20 35 11 19 - - 0.4
06/12:00pm 5.5 0.9 5.5 100 0.0 SSW 19 32 10 17 - - 0.4
06/11:30am 5.3 0.6 5.3 100 0.0 SSW 19 32 10 17 - - 0.4
06/11:00am 5.1 0.8 5.1 100 0.0 SSW 17 30 9 16 - - 0.4
06/10:30am 4.9 0.1 4.9 100 0.0 SSW 19 30 10 16 - - 0.2
06/10:00am 4.7 -0.1 4.7 100 0.0 SSW 19 28 10 15 - - 0.2
06/09:30am 4.3 -0.6 4.3 100 0.0 SSW 19 30 10 16 - - 0.0
06/09:00am 4.3 -0.2 4.3 100 0.0 SSW 17 33 9 18 - - 1.0
06/08:30am 4.2 -0.7 4.2 100 0.0 SSW 19 35 10 19 - - 1.0
06/08:00am 4.4 -0.4 4.4 100 0.0 SSW 19 28 10 15 - - 1.0
06/07:30am 4.4 -1.0 4.4 100 0.0 SSW 22 39 12 21 - - 1.0
06/07:00am 4.4 -0.6 4.4 100 0.0 SSW 20 37 11 20 - - 1.0
06/06:30am 4.5 -0.5 4.5 100 0.0 SSW 20 33 11 18 - - 1.0
06/06:00am 4.5 -0.5 4.5 100 0.0 SSW 20 32 11 17 - - 1.0
06/05:30am 4.4 -0.1 4.4 100 0.0 SSW 17 32 9 17 - - 1.0
06/05:00am 4.3 -0.2 4.3 100 0.0 SSW 17 32 9 17 - - 0.8
06/04:30am 4.1 -0.8 4.1 100 0.0 SSW 19 37 10 20 - - 0.8
06/04:00am 3.8 -0.4 3.8 100 0.0 SSW 15 28 8 15 - - 0.8
06/03:30am 3.2 -1.5 3.1 99 0.0 SSW 17 30 9 16 - - 0.8
06/03:00am 2.8 -2.5 2.8 100 0.0 SSW 20 28 11 15 - - 0.8
06/02:30am 2.9 -1.8 2.9 100 0.0 S 17 32 9 17 - - 0.8
06/02:00am 2.8 -3.3 2.8 100 0.0 S 24 35 13 19 - - 0.8
06/01:30am 2.8 -2.9 2.8 100 0.0 S 22 33 12 18 - - 0.8
06/01:00am 2.7 -3.4 2.7 100 0.0 SSW 24 35 13 19 - - 0.8
06/12:30am 2.7 -3.0 2.7 100 0.0 S 22 32 12 17 - - 0.8
06/12:00am 2.5 -2.7 2.5 100 0.0 S 19 30 10 16 - - 0.8
 
Date/Time
EST
Temp
°C
App
Temp
°C
Dew
Point
°C
Rel
Hum
%
Delta-T
°C
Wind Press
QNH
hPa
Press
MSL
hPa
Rain since
9am
mm
Dir  Spd
km/h
Gust
km/h
Spd
kts
Gust
kts
05/11:30pm 2.5 -3.3 2.5 100 0.0 S 22 32 12 17 - - 0.8
05/11:00pm 3.2 -2.8 3.2 100 0.0 SSW 24 39 13 21 - - 0.8
05/10:30pm 3.5 -2.1 3.5 100 0.0 SSW 22 37 12 20 - - 0.6
05/10:00pm 3.8 -1.7 3.8 100 0.0 SSW 22 41 12 22 - - 0.6
05/09:30pm 3.8 -1.7 3.8 100 0.0 S 22 33 12 18 - - 0.4
05/09:00pm 3.8 -1.4 3.8 100 0.0 SSW 20 33 11 18 - - 0.2
05/08:30pm 3.3 -4.2 3.3 100 0.0 SSW 32 46 17 25 - - 0.2
05/08:00pm 3.3 -4.8 3.3 100 0.0 SSW 35 48 19 26 - - 0.2
05/07:30pm 3.9 -2.4 3.9 100 0.0 SSW 26 43 14 23 - - 0.2
05/07:00pm 4.4 -1.8 4.4 100 0.0 SSW 26 41 14 22 - - 0.2
05/06:30pm 4.6 -2.3 4.6 100 0.0 SSW 30 43 16 23 - - 0.2
05/06:00pm 4.7 -1.8 4.7 100 0.0 SSW 28 39 15 21 - - 0.2
05/05:30pm 4.6 -0.8 4.6 100 0.0 SSW 22 41 12 22 - - 0.2
05/05:00pm 4.9 -1.6 4.9 100 0.0 SSW 28 41 15 22 - - 0.2
05/04:30pm 5.3 0.4 5.3 100 0.0 SSW 20 33 11 18 - - 0.2
05/04:00pm 5.7 0.9 5.7 100 0.0 SSW 20 35 11 19 - - 0.2
05/03:30pm 5.6 0.8 5.6 100 0.0 SSW 20 32 11 17 - - 0.2
05/03:00pm 5.7 0.9 5.7 100 0.0 SSW 20 30 11 16 - - 0.2
05/02:30pm 5.4 -0.2 5.4 100 0.0 SSW 24 41 13 22 - - 0.2
05/02:00pm 5.7 0.5 5.7 100 0.0 SSW 22 35 12 19 - - 0.2
05/01:30pm 5.4 -0.2 5.4 100 0.0 SSW 24 43 13 23 - - 0.2
05/01:00pm 5.4 -1.0 5.4 100 0.0 SSW 28 43 15 23 - - 0.2
05/12:30pm 5.3 -1.1 5.3 100 0.0 SSW 28 41 15 22 - - 0.2
05/12:00pm 5.3 -0.3 5.3 100 0.0 SSW 24 35 13 19 - - 0.2
05/11:30am 5.1 -0.9 5.1 100 0.0 SSW 26 43 14 23 - - 0.2
05/11:00am 4.9 -0.8 4.9 100 0.0 SSW 24 43 13 23 - - 0.2
05/10:30am 4.3 -2.3 4.3 100 0.0 SSW 28 43 15 23 - - 0.0
05/10:00am 4.0 -2.6 4.0 100 0.0 SSW 28 44 15 24 - - 0.0
05/09:30am 3.8 -3.6 3.8 100 0.0 SSW 32 46 17 25 - - 0.0
05/09:00am 3.4 -4.7 3.4 100 0.0 SSW 35 54 19 29 - - 4.6
05/08:30am 3.7 -3.8 3.7 100 0.0 SSW 32 50 17 27 - - 4.6
05/08:29am 3.7 -3.8 3.7 100 0.0 SSW 32 50 17 27 - - 4.6
05/08:00am 3.6 -3.9 3.6 100 0.0 SSW 32 48 17 26 - - 4.6
05/07:51am 3.8 -2.9 3.8 100 0.0 SSW 28 48 15 26 - - 4.6
05/07:30am 4.1 -1.8 4.1 100 0.0 SSW 24 35 13 19 - - 4.2
05/07:00am 4.0 -2.6 4.0 100 0.0 SSW 28 46 15 25 - - 3.8
05/06:37am 3.9 -3.1 3.9 100 0.0 SSW 30 48 16 26 - - 3.8
05/06:30am 3.9 -3.7 3.9 100 0.0 SSW 33 48 18 26 - - 3.8
05/06:00am 3.8 -3.6 3.8 100 0.0 SSW 32 50 17 27 - - 3.6
05/05:32am 3.7 -3.9 3.7 100 0.0 SSW 33 52 18 28 - - 3.6
05/05:30am 3.8 -4.2 3.8 100 0.0 SSW 35 52 19 28 - - 3.6
05/05:00am 3.4 -5.1 3.3 99 0.0 SSW 37 56 20 30 - - 3.6
05/04:39am 3.7 -3.9 3.7 100 0.0 SW 33 54 18 29 - - 3.6
05/04:30am 3.7 -4.3 3.7 100 0.0 SW 35 52 19 28 - - 3.6
05/04:27am 3.7 -3.9 3.7 100 0.0 SW 33 52 18 28 - - 3.6
05/04:00am 4.1 -3.3 4.1 100 0.0 SW 32 44 17 24 - - 3.6
05/03:47am 4.3 -2.3 4.3 100 0.0 SW 28 46 15 25 - - 3.6
05/03:30am 4.3 -2.7 4.3 100 0.0 SW 30 44 16 24 - - 3.6
05/03:00am 4.4 -2.5 4.4 100 0.0 SW 30 46 16 25 - - 3.6
05/02:33am 4.7 -2.2 4.7 100 0.0 SW 30 50 16 27 - - 3.6
05/02:30am 4.7 -1.8 4.7 100 0.0 SW 28 41 15 22 - - 3.6
05/02:00am 5.0 -1.1 5.0 100 0.0 SW 26 39 14 21 - - 3.4
05/01:30am 5.1 -0.2 5.1 100 0.0 SW 22 35 12 19 - - 3.4
05/01:00am 5.2 0.3 5.2 100 0.0 SW 20 30 11 16 - - 3.2
05/12:30am 5.2 -0.1 5.2 100 0.0 SW 22 35 12 19 - - 3.0
05/12:00am 5.2 -1.2 5.2 100 0.0 SW 28 43 15 23 - - 3.0
 
Date/Time
EST
Temp
°C
App
Temp
°C
Dew
Point
°C
Rel
Hum
%
Delta-T
°C
Wind Press
QNH
hPa
Press
MSL
hPa
Rain since
9am
mm
Dir  Spd
km/h
Gust
km/h
Spd
kts
Gust
kts
04/11:30pm 5.2 -0.4 5.2 100 0.0 SW 24 39 13 21 - - 3.0
04/11:00pm 5.2 -0.4 5.2 100 0.0 SSW 24 39 13 21 - - 2.8
04/10:30pm 5.3 -0.3 5.3 100 0.0 SSW 24 39 13 21 - - 2.6
04/10:00pm 5.3 -1.1 5.3 100 0.0 SW 28 41 15 22 - - 2.4
04/09:38pm 5.3 -1.1 5.3 100 0.0 SW 28 46 15 25 - - 2.4
04/09:30pm 5.3 -1.1 5.3 100 0.0 SW 28 41 15 22 - - 2.4
04/09:00pm 5.5 -0.1 5.5 100 0.0 SSW 24 41 13 22 - - 2.0
04/08:30pm 5.4 -1.0 5.4 100 0.0 SW 28 41 15 22 - - 2.0
04/08:00pm 5.8 1.0 5.8 100 0.0 SW 20 37 11 20 - - 1.8
04/07:30pm 5.8 1.0 5.8 100 0.0 SW 20 35 11 19 - - 1.6
04/07:00pm 5.9 0.8 5.9 100 0.0 SW 22 37 12 20 - - 1.6
04/06:30pm 6.0 0.5 6.0 100 0.0 SW 24 41 13 22 - - 1.2
04/06:00pm 6.1 0.6 6.1 100 0.0 SW 24 39 13 21 - - 1.2
04/05:30pm 6.1 -0.5 6.1 100 0.0 SW 30 48 16 26 - - 1.2
04/05:25pm 6.1 -0.1 6.1 100 0.0 SW 28 48 15 26 - - 1.2
04/05:00pm 6.0 0.9 6.0 100 0.0 SW 22 44 12 24 - - 1.2
04/04:30pm 6.0 1.3 6.0 100 0.0 SW 20 33 11 18 - - 1.0
04/04:00pm 5.9 0.4 5.9 100 0.0 SW 24 35 13 19 - - 1.0
04/03:30pm 5.9 0.4 5.9 100 0.0 SW 24 32 13 17 - - 1.0
04/03:00pm 6.3 0.9 6.3 100 0.0 SW 24 39 13 21 - - 1.0
04/02:30pm 6.0 -0.2 6.0 100 0.0 SW 28 41 15 22 - - 0.8
04/02:06pm 6.2 0.0 6.2 100 0.0 SW 28 46 15 25 - - 0.8
04/02:00pm 6.1 0.6 6.1 100 0.0 SW 24 37 13 20 - - 0.8
04/01:30pm 6.9 1.6 6.9 100 0.0 SW 24 37 13 20 - - 0.8
04/01:00pm 6.3 -0.2 6.3 100 0.0 SW 30 48 16 26 - - 0.8
04/12:30pm 6.1 -0.9 6.1 100 0.0 WSW 32 50 17 27 - - 0.6
04/12:19pm 5.9 -1.1 5.9 100 0.0 WSW 32 54 17 29 - - 0.6
04/12:00pm 5.8 -1.2 5.8 100 0.0 WSW 32 46 17 25 - - 0.4
04/11:30am 5.5 -2.2 5.5 100 0.0 SW 35 52 19 28 - - 0.2
04/11:20am 5.4 -1.7 5.4 100 0.0 SW 32 52 17 28 - - 0.2
04/11:00am 5.3 -1.8 5.3 100 0.0 WSW 32 46 17 25 - - 0.2
04/10:30am 5.2 -2.0 5.2 100 0.0 WSW 32 44 17 24 - - 0.2
04/10:00am 4.8 -2.4 4.8 100 0.0 WSW 32 44 17 24 - - 0.0
04/09:30am 4.7 -2.2 4.7 100 0.0 WSW 30 43 16 23 - - 0.0
04/09:00am 4.4 -2.5 4.4 100 0.0 WSW 30 43 16 23 - - 5.6
04/08:34am 4.1 -2.9 4.0 99 0.0 WSW 30 48 16 26 - - 5.4
04/08:30am 4.1 -2.9 4.0 99 0.0 WSW 30 46 16 25 - - 5.4
04/08:24am 4.0 -2.7 3.9 99 0.0 WSW 28 46 15 25 - - 5.4
04/08:00am 3.9 -3.5 3.8 99 0.0 WSW 32 44 17 24 - - 5.4
04/07:30am 3.5 -3.2 3.4 99 0.0 WSW 28 41 15 22 - - 5.4
04/07:07am 3.4 -3.7 3.3 99 0.0 WSW 30 48 16 26 - - 5.4
04/07:00am 3.4 -4.1 3.3 99 0.0 WSW 32 44 17 24 - - 5.2
04/06:30am 3.2 -3.6 3.2 100 0.0 WSW 28 44 15 24 - - 5.2
04/06:00am 3.0 -3.4 3.0 100 0.0 WSW 26 41 14 22 - - 5.2
04/05:30am 2.7 -3.4 2.7 100 0.0 SW 24 39 13 21 - - 5.0
04/05:00am 2.5 -4.0 2.5 100 0.0 SW 26 41 14 22 - - 5.0
04/04:30am 2.2 -4.8 2.2 100 0.0 SW 28 37 15 20 - - 4.8
04/04:00am 2.0 -4.6 2.0 100 0.0 SW 26 37 14 20 - - 4.8
04/03:42am 1.9 -5.1 1.9 100 0.0 SW 28 46 15 25 - - 4.8
04/03:30am 1.7 -5.3 1.7 100 0.0 SW 28 41 15 22 - - 4.8
04/03:00am 1.4 -5.3 1.4 100 0.0 SW 26 43 14 23 - - 4.8
04/02:30am 1.4 -5.7 1.4 100 0.0 SW 28 39 15 21 - - 4.8
04/02:00am 1.2 -6.3 1.2 100 0.0 SW 30 44 16 24 - - 4.8
04/01:30am 1.0 -6.5 1.0 100 0.0 SW 30 44 16 24 - - 4.8
04/01:00am 1.0 -6.5 1.0 100 0.0 SW 30 44 16 24 - - 4.8
04/12:36am 0.8 -6.8 0.8 100 0.0 SW 30 48 16 26 - - 4.8
04/12:30am 1.0 -6.2 1.0 100 0.0 SW 28 44 15 24 - - 4.8
04/12:04am 1.6 -5.5 1.6 100 0.0 SW 28 46 15 25 - - 4.8
04/12:00am 1.6 -5.5 1.6 100 0.0 SW 28 44 15 24 - - 4.8
 
Date/Time
EST
Temp
°C
App
Temp
°C
Dew
Point
°C
Rel
Hum
%
Delta-T
°C
Wind Press
QNH
hPa
Press
MSL
hPa
Rain since
9am
mm
Dir  Spd
km/h
Gust
km/h
Spd
kts
Gust
kts
03/11:37pm 1.5 -5.6 1.5 100 0.0 SW 28 46 15 25 - - 4.8
03/11:30pm 1.4 -6.1 1.4 100 0.0 SW 30 46 16 25 - - 4.8

Other formats

Comma delimited format used in spreadsheet applications
http://www.bom.gov.au/fwo/IDV60801/IDV60801.94835.axf

JavaScript Object Notation format (JSON) in row-major order
http://www.bom.gov.au/fwo/IDV60801/IDV60801.94835.json

Data quality

Most of these data are generated automatically and are frequently updated. Quality checks on data are not normally performed. It is possible for incorrect values to appear. Refer to information at About Latest Weather Observations and please check the disclaimer before using these data.